createdAt,value
2019-03-04T00:01:23.353Z,99209.27
2019-03-04T00:07:29.133Z,99199.86
2019-03-04T00:13:34.912Z,99203.26
2019-03-04T00:19:40.890Z,99177.27
2019-03-04T00:25:46.808Z,99165.23
2019-03-04T00:31:52.795Z,99127.34
2019-03-04T00:37:58.729Z,99077.13
2019-03-04T00:44:04.488Z,99069.47
2019-03-04T00:50:11.163Z,99065.61
2019-03-04T00:56:16.954Z,99060.74
2019-03-04T01:02:23.140Z,99057.16
2019-03-04T01:08:29.167Z,99060.33
2019-03-04T01:14:34.992Z,99054.92
2019-03-04T01:20:40.838Z,99043.88
2019-03-04T01:26:47.096Z,99039.70
2019-03-04T01:32:54.072Z,99023.30
2019-03-04T01:38:59.917Z,99008.22
2019-03-04T01:45:06.378Z,99007.08
2019-03-04T01:51:12.621Z,98950.45
2019-03-04T01:57:18.394Z,98931.98
2019-03-04T02:03:24.803Z,98939.87
2019-03-04T02:09:31.074Z,98953.67
2019-03-04T02:15:37.318Z,98924.41
2019-03-04T02:21:43.416Z,98853.11
2019-03-04T02:27:53.393Z,98823.28
2019-03-04T02:33:59.663Z,98862.62
2019-03-04T02:40:06.656Z,98846.05
2019-03-04T02:46:12.749Z,98816.06
2019-03-04T02:52:18.839Z,98798.30
2019-03-04T02:58:24.817Z,98777.05
2019-03-04T03:04:30.834Z,98741.50
2019-03-04T03:10:36.918Z,98731.77
2019-03-04T03:16:42.704Z,98717.16
2019-03-04T03:22:48.786Z,98680.92
2019-03-04T03:28:55.009Z,98638.73
2019-03-04T03:35:00.884Z,98585.27
2019-03-04T03:41:07.398Z,98599.37
2019-03-04T03:47:13.220Z,98593.95
2019-03-04T03:53:19.264Z,98577.00
2019-03-04T03:59:25.247Z,98565.69
2019-03-04T04:05:31.228Z,98594.01
2019-03-04T04:11:37.063Z,98567.59
2019-03-04T04:17:42.872Z,98513.42
2019-03-04T04:23:49.090Z,98476.86
2019-03-04T04:29:55.095Z,98490.75
2019-03-04T04:36:00.910Z,98484.11
2019-03-04T04:42:06.775Z,98475.45
2019-03-04T04:48:12.581Z,98480.54
2019-03-04T04:54:18.318Z,98477.59
2019-03-04T05:00:24.244Z,98456.48
2019-03-04T05:06:30.034Z,98444.98
2019-03-04T05:12:36.069Z,98414.86
2019-03-04T05:18:42.069Z,98425.48
2019-03-04T05:24:47.822Z,98426.70
2019-03-04T05:30:53.552Z,98389.23
2019-03-04T05:36:59.322Z,98369.02
2019-03-04T05:43:05.235Z,98360.02
2019-03-04T05:49:11.013Z,98346.89
2019-03-04T05:55:17.210Z,98330.34
2019-03-04T06:01:35.264Z,98312.74
2019-03-04T06:07:50.311Z,98288.27
2019-03-04T06:13:56.093Z,98491.83
2019-03-04T06:20:01.923Z,98510.08
2019-03-04T06:26:07.940Z,98565.77
2019-03-04T06:32:13.885Z,98563.84
2019-03-04T06:38:20.192Z,98546.34
2019-03-04T06:44:26.118Z,98507.68
2019-03-04T06:50:52.762Z,98468.25
2019-03-04T06:57:30.946Z,98461.13
2019-03-04T07:03:48.476Z,98454.11
2019-03-04T07:09:54.754Z,98438.27
2019-03-04T07:16:00.760Z,98442.77
2019-03-04T07:22:07.545Z,98454.93
2019-03-04T07:28:13.381Z,98472.12
2019-03-04T07:34:19.599Z,98458.55
2019-03-04T07:40:25.481Z,98472.52
2019-03-04T07:46:31.252Z,98471.80
2019-03-04T07:52:37.007Z,98483.48
2019-03-04T07:58:42.863Z,98472.58
2019-03-04T08:04:48.792Z,98479.02
2019-03-04T08:12:12.800Z,98483.38
2019-03-04T08:18:18.760Z,98483.78
2019-03-04T08:24:24.911Z,98488.61
2019-03-04T08:30:30.817Z,98507.09
2019-03-04T08:36:37.153Z,98499.86
2019-03-04T08:42:43.317Z,98488.99
2019-03-04T08:48:49.096Z,98503.09
2019-03-04T08:54:56.170Z,98502.58
2019-03-04T09:01:02.107Z,98499.80
2019-03-04T09:07:07.949Z,98488.78
2019-03-04T09:13:14.013Z,98486.55
2019-03-04T09:19:20.294Z,98508.05
2019-03-04T09:25:40.000Z,98508.88
2019-03-04T09:31:46.493Z,98494.85
2019-03-04T09:37:54.986Z,98491.84
2019-03-04T09:44:00.816Z,98524.28
2019-03-04T09:50:10.119Z,98524.97
2019-03-04T09:56:16.177Z,98523.39
2019-03-04T10:02:37.355Z,98531.14
2019-03-04T10:09:23.496Z,98519.06
2019-03-04T10:16:21.893Z,98527.56
2019-03-04T10:23:27.159Z,98527.56
2019-03-04T10:30:14.182Z,98508.75
2019-03-04T10:37:02.203Z,98491.17
2019-03-04T10:44:19.680Z,98495.91
2019-03-04T10:50:26.013Z,98495.85
2019-03-04T10:56:31.802Z,98484.91
2019-03-04T11:02:37.567Z,98482.27
2019-03-04T11:08:43.377Z,98488.36
2019-03-04T11:14:49.144Z,98612.04
2019-03-04T11:20:56.995Z,98636.50
2019-03-04T11:27:02.742Z,98637.27
2019-03-04T11:33:10.334Z,98665.80
2019-03-04T11:39:47.900Z,98668.18
2019-03-04T11:45:53.783Z,98691.64
2019-03-04T11:51:59.525Z,98701.92
2019-03-04T11:58:05.344Z,98706.52
2019-03-04T12:04:11.336Z,98721.02
2019-03-04T12:10:20.105Z,98727.37
2019-03-04T12:16:26.069Z,98742.56
2019-03-04T12:22:31.795Z,98754.59
2019-03-04T12:28:37.723Z,98784.48
2019-03-04T12:34:43.453Z,98807.34
2019-03-04T12:40:49.230Z,98825.17
2019-03-04T12:46:55.042Z,98836.50
2019-03-04T12:53:00.990Z,98840.05
2019-03-04T12:59:06.851Z,98845.17
2019-03-04T13:05:12.902Z,98861.33
2019-03-04T13:11:18.710Z,98864.45
2019-03-04T13:17:24.466Z,98870.28
2019-03-04T13:23:30.385Z,98884.34
2019-03-04T13:29:36.203Z,98894.81
2019-03-04T13:35:42.174Z,98910.37
2019-03-04T13:41:47.919Z,98925.72
2019-03-04T13:47:53.685Z,98936.83
2019-03-04T13:53:59.547Z,98937.72
2019-03-04T14:00:06.544Z,98960.00
2019-03-04T14:06:12.782Z,98961.29
2019-03-04T14:12:18.495Z,98965.02
2019-03-04T14:18:24.695Z,98980.95
2019-03-04T14:24:32.253Z,98988.33
2019-03-04T14:30:38.325Z,99008.95
2019-03-04T14:36:44.496Z,99016.10
2019-03-04T14:42:50.508Z,99023.19
2019-03-04T14:48:56.502Z,99039.86
2019-03-04T14:55:02.677Z,99056.89
2019-03-04T15:01:08.989Z,99082.43
2019-03-04T15:07:15.337Z,99091.23
2019-03-04T15:13:21.547Z,99086.13
2019-03-04T15:19:27.529Z,99123.07
2019-03-04T15:25:33.709Z,99126.48
2019-03-04T15:31:39.523Z,99140.03
2019-03-04T15:37:45.702Z,99156.59
2019-03-04T15:43:51.662Z,99159.39
2019-03-04T15:49:57.744Z,99181.94
2019-03-04T15:56:03.544Z,99188.42
2019-03-04T16:02:14.508Z,99208.08
2019-03-04T16:08:20.524Z,99226.73
2019-03-04T16:14:26.822Z,99235.73
2019-03-04T16:20:33.085Z,99228.55
2019-03-04T16:26:39.421Z,99230.42
2019-03-04T16:32:45.355Z,99244.78
2019-03-04T16:38:51.260Z,99246.16
2019-03-04T16:44:57.002Z,99269.48
2019-03-04T16:51:02.853Z,99274.12
2019-03-04T16:57:13.862Z,99297.06
2019-03-04T17:03:19.725Z,99305.94
2019-03-04T17:09:26.268Z,99315.73
2019-03-04T17:15:32.009Z,99336.73
2019-03-04T17:21:37.673Z,99347.02
2019-03-04T17:27:43.745Z,99348.56
2019-03-04T17:33:49.550Z,99367.09
2019-03-04T17:39:55.461Z,99379.95
2019-03-04T17:46:01.290Z,99391.05
2019-03-04T17:52:07.125Z,99402.64
2019-03-04T17:58:13.492Z,99413.78
2019-03-04T18:04:19.254Z,99420.09
2019-03-04T18:10:25.416Z,99425.45
2019-03-04T18:16:31.131Z,99436.08
2019-03-04T18:22:36.901Z,99430.13
2019-03-04T18:29:11.217Z,99437.23
2019-03-04T18:36:23.197Z,99438.19
2019-03-04T18:42:56.997Z,99439.98
2019-03-04T18:49:03.911Z,99448.84
2019-03-04T18:55:10.300Z,99451.58
2019-03-04T19:01:16.761Z,99456.00
2019-03-04T19:07:22.940Z,99459.14
2019-03-04T19:13:28.882Z,99468.80
2019-03-04T19:19:34.758Z,99475.36
2019-03-04T19:25:40.764Z,99478.77
2019-03-04T19:31:46.761Z,99476.88
2019-03-04T19:37:52.707Z,99472.03
2019-03-04T19:43:58.542Z,99467.32
2019-03-04T19:50:04.868Z,99482.69
2019-03-04T19:56:10.695Z,99491.50
2019-03-04T20:02:18.181Z,99487.19
2019-03-04T20:08:24.092Z,99486.40
2019-03-04T20:14:29.983Z,99489.50
2019-03-04T20:20:36.025Z,99493.90
2019-03-04T20:26:42.189Z,99495.12
2019-03-04T20:32:48.226Z,99491.13
2019-03-04T20:38:54.046Z,99492.83
2019-03-04T20:44:59.862Z,99493.60
2019-03-04T20:51:06.109Z,99503.17
2019-03-04T20:57:12.190Z,99490.78
2019-03-04T21:03:18.453Z,99497.31
2019-03-04T21:09:24.804Z,99517.33
2019-03-04T21:15:30.612Z,99541.47
2019-03-04T21:21:36.737Z,99595.06
2019-03-04T21:27:42.541Z,99596.88
2019-03-04T21:34:17.289Z,99580.65
2019-03-04T21:41:27.110Z,99587.80
2019-03-04T21:47:38.613Z,99599.59
2019-03-04T21:53:47.574Z,99615.36
2019-03-04T21:59:53.410Z,99617.12
2019-03-04T22:05:59.676Z,99622.31
2019-03-04T22:12:07.609Z,99626.28
2019-03-04T22:18:13.346Z,99632.80
2019-03-04T22:24:19.180Z,99631.04
2019-03-04T22:30:24.974Z,99641.93
2019-03-04T22:36:30.811Z,99643.19
2019-03-04T22:42:36.746Z,99650.09
2019-03-04T22:48:42.533Z,99654.88
2019-03-04T22:54:48.251Z,99657.05
2019-03-04T23:01:56.373Z,99661.38
2019-03-04T23:08:02.150Z,99667.84
2019-03-04T23:14:19.726Z,99675.25
2019-03-04T23:20:25.620Z,99687.85
2019-03-04T23:26:31.450Z,99681.25
2019-03-04T23:32:37.571Z,99671.52
2019-03-04T23:38:43.367Z,99678.48
2019-03-04T23:44:49.101Z,99693.75
2019-03-04T23:50:55.383Z,99687.15
2019-03-04T23:57:01.800Z,99694.14
